Time;durP1;ratioP1;P1;durP2;ratioP2;P2;SDS_P1;SDS_P2;PMS_P1;PMS_P2;Temp;Humidity;BMP_temperature;BMP_pressure;BME280_temperature;BME280_humidity;BME280_pressure;Samples;Min_cycle;Max_cycle;Signal;HPM_P1;HPM_P2
2022/01/04 00:01:03;;;;;;;3.27;1.70;;;;;;;6.68;100.00;97070.25;4984717;28;20221;-68
2022/01/04 00:03:32;;;;;;;2.23;1.80;;;;;;;6.73;100.00;97057.41;4984839;28;20571;-69
2022/01/04 00:06:00;;;;;;;2.00;1.90;;;;;;;6.67;100.00;97050.97;4986939;28;20206;-70
2022/01/04 00:08:28;;;;;;;5.07;2.80;;;;;;;6.57;100.00;97043.22;4986581;28;20205;-67
2022/01/04 00:11:06;;;;;;;5.27;3.20;;;;;;;6.54;100.00;97042.72;4986778;28;20225;-68
2022/01/04 00:13:34;;;;;;;4.80;4.30;;;;;;;6.51;100.00;97030.72;4988700;28;20629;-70
2022/01/04 00:16:07;;;;;;;3.03;2.80;;;;;;;6.54;100.00;97021.69;4984561;28;20208;-69
2022/01/04 00:18:35;;;;;;;3.87;3.47;;;;;;;6.49;100.00;97030.88;4986949;28;20555;-69
2022/01/04 00:21:03;;;;;;;6.53;5.43;;;;;;;6.51;100.00;97020.19;4984504;28;20225;-68
2022/01/04 00:23:31;;;;;;;5.97;4.53;;;;;;;6.40;100.00;97021.31;4984684;28;20601;-69
2022/01/04 00:26:00;;;;;;;5.17;3.53;;;;;;;6.42;100.00;97013.25;4986901;28;20213;-68
2022/01/04 00:28:28;;;;;;;4.67;3.17;;;;;;;6.45;100.00;97010.31;4986508;28;20206;-69
2022/01/04 00:30:56;;;;;;;4.07;2.53;;;;;;;6.42;100.00;97003.53;4985634;28;20244;-69
2022/01/04 00:33:25;;;;;;;2.00;1.80;;;;;;;6.32;100.00;97003.72;4987693;28;20210;-69
2022/01/04 00:35:53;;;;;;;2.10;2.00;;;;;;;6.29;100.00;96990.03;4984834;28;20209;-70
2022/01/04 00:38:21;;;;;;;2.13;1.63;;;;;;;6.32;100.00;96977.41;4984640;28;20232;-70
2022/01/04 00:40:49;;;;;;;1.80;1.70;;;;;;;6.29;100.00;96976.88;4984921;28;20241;-70
2022/01/04 00:43:17;;;;;;;2.87;1.77;;;;;;;6.26;100.00;96970.16;4985481;28;20202;-68
2022/01/04 00:45:45;;;;;;;3.17;1.77;;;;;;;6.22;100.00;96963.53;4985748;28;20300;-69
2022/01/04 00:51:00;;;;;;;2.30;1.60;;;;;;;6.19;100.00;96961.22;4985809;28;20256;-67
2022/01/04 00:53:28;;;;;;;4.30;2.00;;;;;;;6.23;100.00;96954.66;4985414;28;20210;-69
2022/01/04 00:55:56;;;;;;;3.73;1.90;;;;;;;6.16;100.00;96940.50;4984744;28;20785;-69
2022/01/04 00:58:24;;;;;;;1.40;1.27;;;;;;;6.10;100.00;96942.00;4985608;28;20212;-71
2022/01/04 01:00:52;;;;;;;1.70;1.60;;;;;;;6.12;100.00;96939.19;4985631;28;20214;-68
2022/01/04 01:03:20;;;;;;;4.17;1.93;;;;;;;6.05;100.00;96942.47;4986112;28;20578;-69
2022/01/04 01:05:48;;;;;;;1.43;1.33;;;;;;;6.06;100.00;96930.13;4985388;28;20206;-69
2022/01/04 01:08:17;;;;;;;3.37;1.83;;;;;;;6.00;100.00;96936.84;4985119;28;20212;-71
2022/01/04 01:10:48;;;;;;;5.27;2.20;;;;;;;6.11;100.00;96921.78;4984416;28;20237;-70
2022/01/04 01:13:16;;;;;;;1.87;1.67;;;;;;;6.00;100.00;96910.56;4984748;28;20212;-71
2022/01/04 01:15:45;;;;;;;3.23;2.07;;;;;;;6.07;100.00;96908.13;4985482;28;20233;-68
2022/01/04 01:18:15;;;;;;;2.07;1.97;;;;;;;5.95;100.00;96897.06;4985430;28;20233;-69
2022/01/04 01:20:44;;;;;;;2.03;1.83;;;;;;;5.93;100.00;96905.09;4985658;28;20221;-70
2022/01/04 01:23:12;;;;;;;1.90;1.80;;;;;;;5.97;100.00;96899.53;4985700;28;20202;-68
2022/01/04 01:25:41;;;;;;;2.20;2.00;;;;;;;5.93;100.00;96893.78;4986027;28;20202;-69
2022/01/04 01:28:09;;;;;;;2.43;1.90;;;;;;;5.92;100.00;96889.50;4985275;28;20206;-68
2022/01/04 01:30:40;;;;;;;1.93;1.83;;;;;;;5.92;100.00;96886.88;4985697;28;20616;-69
2022/01/04 01:33:08;;;;;;;1.77;1.67;;;;;;;5.91;100.00;96878.16;4985507;28;20206;-69
2022/01/04 01:35:37;;;;;;;2.53;1.90;;;;;;;5.85;100.00;96870.91;4986020;28;20881;-67
2022/01/04 01:38:08;;;;;;;2.73;1.97;;;;;;;5.98;100.00;96873.06;4985621;28;20209;-68
2022/01/04 01:40:36;;;;;;;1.50;1.47;;;;;;;6.03;100.00;96870.81;4985288;28;20218;-69
2022/01/04 01:43:06;;;;;;;1.77;1.67;;;;;;;5.94;100.00;96867.31;4985720;28;20208;-68
2022/01/04 01:45:35;;;;;;;1.93;1.83;;;;;;;5.94;100.00;96858.59;4985637;28;20589;-68
2022/01/04 01:48:04;;;;;;;4.47;2.57;;;;;;;5.98;100.00;96849.41;4985456;28;20700;-68
2022/01/04 01:50:33;;;;;;;3.13;2.03;;;;;;;5.92;100.00;96848.25;4986745;28;20240;-70
2022/01/04 01:53:02;;;;;;;1.90;1.80;;;;;;;5.91;100.00;96854.47;4989471;28;20212;-67
2022/01/04 01:55:30;;;;;;;3.13;1.93;;;;;;;5.93;100.00;96847.25;4989319;28;20198;-69
2022/01/04 01:57:58;;;;;;;2.00;1.90;;;;;;;5.97;100.00;96834.59;4988390;28;20213;-68
2022/01/04 02:00:29;;;;;;;2.33;1.87;;;;;;;6.07;100.00;96827.41;4987806;28;20201;-70
2022/01/04 02:02:59;;;;;;;2.10;1.93;;;;;;;6.00;100.00;96829.03;4989280;28;20194;-70
2022/01/04 02:05:29;;;;;;;3.53;2.23;;;;;;;6.07;100.00;96826.59;4989094;28;20206;-69
2022/01/04 02:07:57;;;;;;;2.43;1.50;;;;;;;6.17;100.00;96818.53;4989387;28;20573;-69
2022/01/04 02:10:25;;;;;;;2.37;1.50;;;;;;;6.13;100.00;96814.56;4988538;28;20232;-71
2022/01/04 02:12:54;;;;;;;2.47;2.27;;;;;;;6.12;100.00;96810.31;4989214;28;20208;-68
2022/01/04 02:15:24;;;;;;;3.00;1.93;;;;;;;6.15;100.00;96805.53;4989405;28;20198;-68
2022/01/04 02:17:53;;;;;;;5.07;1.70;;;;;;;6.12;100.00;96799.78;4985080;28;20212;-69
2022/01/04 02:20:22;;;;;;;1.87;1.77;;;;;;;6.21;100.00;96801.41;4985076;28;20205;-70
2022/01/04 02:22:50;;;;;;;2.10;1.90;;;;;;;6.23;100.00;96800.28;4985135;28;20573;-69
2022/01/04 02:25:19;;;;;;;2.03;1.67;;;;;;;6.26;100.00;96787.78;4989070;28;20201;-69
2022/01/04 02:27:47;;;;;;;2.83;2.33;;;;;;;6.29;100.00;96785.66;4988487;28;20799;-67
2022/01/04 02:30:17;;;;;;;1.30;1.20;;;;;;;6.33;100.00;96771.16;4987994;28;20638;-69
2022/01/04 02:32:47;;;;;;;1.67;1.67;;;;;;;6.34;100.00;96778.06;4988524;28;20206;-70
2022/01/04 02:35:17;;;;;;;2.10;1.40;;;;;;;6.40;100.00;96773.13;4988720;28;20294;-67
2022/01/04 02:37:46;;;;;;;1.67;1.57;;;;;;;6.39;100.00;96760.94;4988149;28;20202;-68
2022/01/04 02:40:14;;;;;;;4.27;2.10;;;;;;;6.49;100.00;96761.56;4988663;28;20202;-72
2022/01/04 02:42:43;;;;;;;3.53;1.57;;;;;;;6.54;100.00;96753.19;4988449;28;20206;-69
2022/01/04 02:45:11;;;;;;;1.63;1.53;;;;;;;6.58;100.00;96754.50;4988348;28;20209;-70
2022/01/04 02:47:39;;;;;;;2.20;2.00;;;;;;;6.57;100.00;96752.84;4988145;28;20701;-70
2022/01/04 02:50:09;;;;;;;1.43;1.30;;;;;;;6.48;100.00;96734.47;4988017;28;20222;-71
2022/01/04 02:52:38;;;;;;;2.20;1.90;;;;;;;6.56;100.00;96724.88;4988215;28;20217;-69
2022/01/04 02:55:09;;;;;;;1.97;1.80;;;;;;;6.51;100.00;96736.75;4988616;28;20597;-68
2022/01/04 02:57:38;;;;;;;3.83;1.67;;;;;;;6.59;100.00;96735.06;4988365;28;20205;-70
2022/01/04 03:00:08;;;;;;;2.43;1.57;;;;;;;6.63;100.00;96731.94;4987740;28;20670;-69
2022/01/04 03:02:36;;;;;;;3.10;1.63;;;;;;;6.64;100.00;96733.59;4986988;28;20229;-71
2022/01/04 03:05:06;;;;;;;2.30;1.73;;;;;;;6.61;100.00;96733.91;4988147;28;20221;-69
2022/01/04 03:07:34;;;;;;;1.27;1.20;;;;;;;6.65;100.00;96729.13;4988231;28;20213;-71
2022/01/04 03:10:03;;;;;;;1.40;1.30;;;;;;;6.76;100.00;96720.03;4988188;28;20198;-68
2022/01/04 03:12:34;;;;;;;1.60;1.50;;;;;;;6.65;100.00;96695.72;4987840;28;20233;-69
2022/01/04 03:15:03;;;;;;;1.43;1.40;;;;;;;6.73;100.00;96701.94;4987975;28;20227;-68
2022/01/04 03:17:30;;;;;;;1.70;1.60;;;;;;;6.81;100.00;96694.81;4987965;28;20270;-69
2022/01/04 03:19:59;;;;;;;2.20;1.40;;;;;;;6.83;100.00;96691.22;4987620;28;20202;-67
2022/01/04 03:22:27;;;;;;;1.73;1.63;;;;;;;6.84;100.00;96684.97;4987769;28;20261;-70
2022/01/04 03:24:54;;;;;;;1.50;1.40;;;;;;;6.84;100.00;96677.06;4987625;28;20630;-69
2022/01/04 03:27:22;;;;;;;2.30;1.50;;;;;;;6.91;100.00;96684.06;4987633;28;20206;-69
2022/01/04 03:29:52;;;;;;;1.50;1.43;;;;;;;6.86;100.00;96667.16;4987553;28;20204;-70
2022/01/04 03:32:20;;;;;;;5.33;3.43;;;;;;;6.92;100.00;96656.75;4987495;28;20256;-68
2022/01/04 03:34:48;;;;;;;1.70;1.60;;;;;;;6.91;100.00;96659.56;4987721;28;20202;-69
2022/01/04 03:37:16;;;;;;;1.60;1.60;;;;;;;6.91;100.00;96644.56;4986933;28;20208;-70
2022/01/04 03:39:44;;;;;;;1.77;1.27;;;;;;;6.88;100.00;96637.00;4987387;28;20704;-68
2022/01/04 03:42:11;;;;;;;1.23;1.23;;;;;;;6.92;100.00;96633.03;4987454;28;20218;-70
2022/01/04 03:44:39;;;;;;;1.30;1.20;;;;;;;6.99;100.00;96633.16;4987041;28;20205;-69
2022/01/04 03:47:09;;;;;;;2.07;1.47;;;;;;;6.98;100.00;96630.69;4987462;28;20249;-70
2022/01/04 03:49:37;;;;;;;1.60;1.50;;;;;;;6.94;100.00;96623.16;4987761;28;20209;-68
2022/01/04 03:52:05;;;;;;;1.70;1.60;;;;;;;6.99;100.00;96621.81;4986865;28;20240;-69
2022/01/04 03:54:33;;;;;;;1.53;1.43;;;;;;;6.94;100.00;96623.16;4987200;28;20256;-69
2022/01/04 03:57:01;;;;;;;2.23;1.43;;;;;;;7.01;100.00;96614.53;4986200;28;20295;-70
2022/01/04 03:59:29;;;;;;;1.53;1.37;;;;;;;6.92;100.00;96604.06;4987639;28;20233;-69
2022/01/04 04:01:58;;;;;;;1.50;1.20;;;;;;;6.95;100.00;96590.53;4987261;28;20578;-70
2022/01/04 04:04:27;;;;;;;1.33;1.33;;;;;;;6.98;100.00;96585.91;4987638;28;20208;-70
2022/01/04 04:06:55;;;;;;;1.40;1.30;;;;;;;6.91;100.00;96589.25;4986797;28;20217;-70
2022/01/04 04:09:24;;;;;;;2.67;1.47;;;;;;;6.95;100.00;96587.09;4987044;28;20205;-71
2022/01/04 04:11:52;;;;;;;1.23;1.23;;;;;;;7.05;100.00;96584.25;4983571;28;20221;-72
2022/01/04 04:14:20;;;;;;;1.70;1.40;;;;;;;6.96;100.00;96580.84;4983250;28;20205;-70
2022/01/04 04:17:08;;;;;;;1.80;1.63;;;;;;;6.96;100.00;96575.56;4988040;28;20201;-71
2022/01/04 04:19:37;;;;;;;1.37;1.17;;;;;;;6.95;100.00;96580.00;4985421;28;20209;-70
2022/01/04 04:22:05;;;;;;;0.93;0.93;;;;;;;7.00;100.00;96563.69;4986429;28;20217;-71
2022/01/04 04:24:33;;;;;;;1.23;1.13;;;;;;;7.00;100.00;96558.41;4986528;28;20696;-70
2022/01/04 04:27:02;;;;;;;2.10;1.50;;;;;;;6.95;100.00;96556.31;4986523;28;20202;-69
2022/01/04 04:29:30;;;;;;;1.70;1.50;;;;;;;7.00;100.00;96558.41;4986743;28;20198;-70
2022/01/04 04:31:58;;;;;;;2.00;1.50;;;;;;;6.99;100.00;96550.69;4985040;28;20335;-70
2022/01/04 04:34:26;;;;;;;2.00;1.90;;;;;;;6.98;100.00;96546.41;4985602;28;20206;-72
2022/01/04 04:36:56;;;;;;;1.57;1.47;;;;;;;6.98;100.00;96541.97;4984705;28;20212;-70
2022/01/04 04:39:24;;;;;;;2.60;1.70;;;;;;;7.03;100.00;96533.56;4983914;28;20210;-70
2022/01/04 04:41:52;;;;;;;1.93;1.83;;;;;;;7.03;100.00;96537.00;4983844;28;20221;-71
2022/01/04 04:44:20;;;;;;;2.03;1.37;;;;;;;7.01;100.00;96525.81;4985465;28;20212;-72
2022/01/04 04:46:49;;;;;;;1.60;1.50;;;;;;;7.01;100.00;96520.56;4985521;28;20570;-69
2022/01/04 04:49:17;;;;;;;2.17;1.97;;;;;;;6.99;100.00;96524.34;4986074;28;20724;-68
2022/01/04 04:51:45;;;;;;;1.63;1.47;;;;;;;7.02;100.00;96519.56;4983403;28;20981;-75
2022/01/04 04:54:15;;;;;;;2.00;1.70;;;;;;;7.05;100.00;96516.56;4985820;28;20202;-72
2022/01/04 04:56:43;;;;;;;2.47;1.47;;;;;;;7.04;100.00;96508.84;4986110;28;20262;-73
2022/01/04 04:59:11;;;;;;;1.40;1.27;;;;;;;7.11;100.00;96504.50;4989318;28;20209;-74
2022/01/04 05:01:39;;;;;;;2.00;1.90;;;;;;;7.02;100.00;96506.38;4984439;28;20233;-75
2022/01/04 05:04:07;;;;;;;3.03;1.90;;;;;;;7.06;100.00;96493.69;4984772;28;20303;-70
2022/01/04 05:06:35;;;;;;;1.70;1.60;;;;;;;6.99;100.00;96496.19;4986209;28;20271;-72
2022/01/04 05:09:03;;;;;;;1.80;1.70;;;;;;;7.03;100.00;96488.78;4985652;28;20208;-70
2022/01/04 05:11:33;;;;;;;1.87;1.77;;;;;;;6.92;100.00;96496.09;4983468;28;20840;-71
2022/01/04 05:14:01;;;;;;;1.90;1.63;;;;;;;6.95;100.00;96487.03;4985587;28;20198;-69
2022/01/04 05:16:29;;;;;;;1.83;1.73;;;;;;;6.92;100.00;96485.56;4986106;28;20204;-69
2022/01/04 05:18:57;;;;;;;1.83;1.73;;;;;;;6.93;100.00;96484.56;4981870;28;20205;-69
2022/01/04 05:21:25;;;;;;;1.83;1.60;;;;;;;6.94;100.00;96486.19;4983015;28;20229;-69
2022/01/04 05:23:54;;;;;;;1.67;1.60;;;;;;;6.94;100.00;96478.28;4986005;28;20213;-70
2022/01/04 05:26:22;;;;;;;1.90;1.80;;;;;;;6.89;100.00;96478.00;4991886;28;20205;-67
2022/01/04 05:28:51;;;;;;;1.83;1.73;;;;;;;6.93;100.00;96479.28;4989688;28;20201;-71
2022/01/04 05:31:19;;;;;;;2.10;2.00;;;;;;;6.91;100.00;96473.38;4992257;28;20584;-67
2022/01/04 05:33:47;;;;;;;2.20;2.10;;;;;;;6.88;100.00;96465.84;4990801;28;20201;-68
2022/01/04 05:36:15;;;;;;;2.43;2.10;;;;;;;6.94;100.00;96462.50;4991891;28;20217;-70
2022/01/04 05:38:44;;;;;;;4.17;2.30;;;;;;;6.93;100.00;96447.69;4987964;28;20777;-70
2022/01/04 05:41:12;;;;;;;2.03;1.93;;;;;;;6.83;100.00;96456.84;4992420;28;20944;-70
2022/01/04 05:43:40;;;;;;;2.40;2.30;;;;;;;6.85;100.00;96450.41;4991972;28;20209;-71
2022/01/04 05:46:09;;;;;;;2.30;1.90;;;;;;;6.81;100.00;96444.66;4992102;28;20686;-70
2022/01/04 05:48:37;;;;;;;2.70;2.57;;;;;;;6.79;100.00;96438.75;4992059;28;20291;-71
2022/01/04 05:51:05;;;;;;;4.13;2.20;;;;;;;6.72;100.00;96429.94;4991572;28;20225;-70
2022/01/04 05:53:33;;;;;;;1.70;1.60;;;;;;;6.85;100.00;96426.69;4992119;28;20232;-72
2022/01/04 05:56:01;;;;;;;2.43;2.30;;;;;;;6.74;100.00;96424.50;4992075;28;20216;-71
2022/01/04 05:58:29;;;;;;;2.20;2.03;;;;;;;6.77;100.00;96419.69;4992356;28;20205;-73
2022/01/04 06:00:58;;;;;;;2.37;2.17;;;;;;;6.76;100.00;96410.16;4991595;28;20221;-75
2022/01/04 06:03:27;;;;;;;2.10;1.90;;;;;;;6.75;100.00;96408.50;4996344;28;20200;-71
2022/01/04 06:05:56;;;;;;;1.70;1.60;;;;;;;6.72;100.00;96405.44;4992363;28;20717;-75
2022/01/04 06:08:30;;;;;;;1.90;1.80;;;;;;;6.72;100.00;96400.97;4992184;28;20520;-71
2022/01/04 06:10:58;;;;;;;2.03;1.90;;;;;;;6.60;100.00;96402.41;4990868;28;20260;-71
2022/01/04 06:16:24;;;;;;;2.07;1.90;;;;;;;6.69;100.00;96390.81;4965951;28;20213;-72
2022/01/04 06:18:53;;;;;;;2.30;2.03;;;;;;;6.55;100.00;96387.16;4989770;28;20212;-70
2022/01/04 06:21:21;;;;;;;2.20;2.00;;;;;;;6.61;100.00;96388.25;4988191;28;20225;-70
2022/01/04 06:23:49;;;;;;;2.17;2.07;;;;;;;6.60;100.00;96382.16;4991700;28;20237;-74
2022/01/04 06:26:17;;;;;;;2.00;1.90;;;;;;;6.57;100.00;96385.16;4993047;28;20202;-71
2022/01/04 06:28:45;;;;;;;4.20;2.20;;;;;;;6.57;100.00;96385.16;4992360;28;20205;-74
2022/01/04 06:31:13;;;;;;;1.80;1.70;;;;;;;6.56;100.00;96386.16;4991710;28;20232;-72
2022/01/04 06:33:41;;;;;;;2.00;1.90;;;;;;;6.53;100.00;96391.78;4992048;28;20225;-74
2022/01/04 06:36:11;;;;;;;2.50;2.00;;;;;;;6.56;100.00;96380.09;4987102;28;20205;-72
2022/01/04 06:38:39;;;;;;;1.97;1.80;;;;;;;6.55;100.00;96365.28;4988882;28;20217;-72
2022/01/04 06:41:07;;;;;;;1.83;1.73;;;;;;;6.58;100.00;96376.25;4989680;28;20225;-74
2022/01/04 06:43:34;;;;;;;1.93;1.83;;;;;;;6.51;100.00;96370.06;4988356;28;20214;-73
2022/01/04 06:46:02;;;;;;;2.30;2.10;;;;;;;6.54;100.00;96355.75;4989835;28;20217;-74
2022/01/04 06:48:30;;;;;;;5.03;2.50;;;;;;;6.64;100.00;96341.34;4988561;28;20586;-73
2022/01/04 06:50:59;;;;;;;1.87;1.77;;;;;;;6.64;100.00;96337.88;4989050;28;20244;-71
2022/01/04 06:53:28;;;;;;;2.83;1.83;;;;;;;6.73;100.00;96341.25;4985482;28;20225;-72
2022/01/04 06:55:56;;;;;;;3.17;2.40;;;;;;;6.77;100.00;96332.81;4985435;28;20560;-72
2022/01/04 06:58:24;;;;;;;2.77;2.20;;;;;;;6.72;100.00;96329.91;4989817;28;20367;-72
2022/01/04 07:00:52;;;;;;;2.23;2.13;;;;;;;6.65;100.00;96334.25;4988558;28;20229;-70
2022/01/04 07:03:20;;;;;;;2.93;2.50;;;;;;;6.65;100.00;96335.09;4989317;28;20213;-72
2022/01/04 07:05:48;;;;;;;2.93;2.60;;;;;;;6.76;100.00;96325.91;4989103;28;20208;-72
2022/01/04 07:08:16;;;;;;;1.70;1.60;;;;;;;6.72;100.00;96322.00;4988853;28;20712;-72
2022/01/04 07:10:46;;;;;;;2.60;1.97;;;;;;;6.76;100.00;96325.09;4989401;28;20772;-72
2022/01/04 07:13:14;;;;;;;2.10;2.00;;;;;;;6.77;100.00;96313.56;4986757;28;20230;-71
2022/01/04 07:15:45;;;;;;;2.40;2.10;;;;;;;6.74;100.00;96308.66;4988299;28;20209;-73
2022/01/04 07:18:14;;;;;;;1.90;1.80;;;;;;;6.78;100.00;96296.78;4987082;28;20237;-73
2022/01/04 07:20:42;;;;;;;2.63;2.20;;;;;;;6.94;100.00;96304.47;4988682;28;20237;-71
2022/01/04 07:23:10;;;;;;;4.17;2.27;;;;;;;6.95;100.00;96305.31;4987136;28;20674;-70
2022/01/04 07:25:38;;;;;;;2.63;1.73;;;;;;;6.99;100.00;96293.41;4987771;28;20208;-72
2022/01/04 07:28:07;;;;;;;2.03;1.93;;;;;;;6.99;100.00;96288.13;4987321;28;20264;-69
2022/01/04 07:30:35;;;;;;;3.13;1.90;;;;;;;6.93;100.00;96300.22;4989061;28;20744;-68
2022/01/04 07:33:03;;;;;;;3.30;2.17;;;;;;;6.97;100.00;96291.94;4982914;28;20221;-68
2022/01/04 07:35:31;;;;;;;1.97;1.87;;;;;;;6.93;100.00;96283.59;4989446;28;20213;-69
2022/01/04 07:37:59;;;;;;;2.00;1.83;;;;;;;6.94;100.00;96279.97;4988284;28;20210;-68
2022/01/04 07:40:27;;;;;;;2.30;1.90;;;;;;;6.97;100.00;96278.78;4986384;28;20206;-68
2022/01/04 07:42:59;;;;;;;3.40;2.07;;;;;;;6.88;100.00;96281.50;4989595;28;20205;-68
2022/01/04 07:45:30;;;;;;;1.83;1.73;;;;;;;6.95;100.00;96279.78;4985161;28;20681;-69
2022/01/04 07:47:59;;;;;;;2.10;1.80;;;;;;;6.91;100.00;96281.13;4986818;28;20634;-69
2022/01/04 07:50:27;;;;;;;2.07;1.47;;;;;;;6.86;100.00;96277.44;4987554;28;20682;-69
2022/01/04 07:52:55;;;;;;;1.90;1.80;;;;;;;6.90;100.00;96271.59;4984399;28;20240;-70
2022/01/04 07:55:23;;;;;;;2.23;1.90;;;;;;;6.92;100.00;96271.44;4988115;28;20209;-71
2022/01/04 07:57:51;;;;;;;2.03;1.80;;;;;;;6.90;100.00;96268.16;4986231;28;20206;-69
2022/01/04 08:00:20;;;;;;;2.23;2.00;;;;;;;6.90;100.00;96276.06;4986787;28;20213;-71
2022/01/04 08:02:49;;;;;;;2.90;2.43;;;;;;;6.97;100.00;96274.34;4987702;28;20210;-70
2022/01/04 08:05:18;;;;;;;2.23;2.10;;;;;;;7.02;100.00;96277.22;4986658;28;20297;-72
2022/01/04 08:07:46;;;;;;;2.10;2.00;;;;;;;7.06;100.00;96272.41;4987538;28;20244;-70
2022/01/04 08:10:14;;;;;;;4.93;2.47;;;;;;;7.11;100.00;96259.50;4988610;28;20211;-69
2022/01/04 08:12:42;;;;;;;2.27;2.10;;;;;;;7.04;100.00;96261.25;4987688;28;20209;-70
2022/01/04 08:15:11;;;;;;;1.90;1.80;;;;;;;7.10;100.00;96257.88;4988565;28;20206;-74
2022/01/04 08:17:40;;;;;;;2.43;2.23;;;;;;;7.21;100.00;96248.69;4988703;28;20213;-74
2022/01/04 08:20:11;;;;;;;2.00;1.90;;;;;;;7.27;100.00;96252.38;4986815;28;20197;-74
2022/01/04 08:22:39;;;;;;;1.83;1.70;;;;;;;7.18;100.00;96247.22;4988234;28;20225;-74
2022/01/04 08:25:09;;;;;;;2.70;2.50;;;;;;;7.35;100.00;96244.34;4988431;28;20216;-73
2022/01/04 08:27:37;;;;;;;2.63;2.03;;;;;;;7.34;100.00;96237.44;4986958;28;20213;-75
2022/01/04 08:30:07;;;;;;;2.20;2.10;;;;;;;7.43;100.00;96228.44;4983896;28;20641;-75
2022/01/04 08:32:37;;;;;;;1.47;1.43;;;;;;;7.34;100.00;96232.19;4987402;28;20228;-75
2022/01/04 08:35:06;;;;;;;1.77;1.67;;;;;;;7.39;100.00;96227.19;4987778;28;20228;-75
2022/01/04 08:37:35;;;;;;;1.80;1.70;;;;;;;7.26;100.00;96222.59;4987363;28;20682;-71
2022/01/04 08:40:04;;;;;;;1.97;1.87;;;;;;;7.45;100.00;96218.53;4987840;28;20194;-73
2022/01/04 08:42:33;;;;;;;2.67;2.13;;;;;;;7.36;100.00;96222.28;4986276;28;20317;-71
2022/01/04 08:45:01;;;;;;;2.63;1.93;;;;;;;7.39;100.00;96220.09;4987821;28;20212;-74
2022/01/04 08:47:29;;;;;;;3.20;2.90;;;;;;;7.37;100.00;96218.63;4981809;28;20205;-73
2022/01/04 08:49:57;;;;;;;2.40;2.23;;;;;;;7.46;100.00;96204.34;4983631;28;20225;-73
2022/01/04 08:52:27;;;;;;;1.87;1.77;;;;;;;7.43;100.00;96199.47;4986877;28;20324;-71
2022/01/04 08:55:01;;;;;;;2.23;2.13;;;;;;;7.50;100.00;96199.50;4987137;28;20268;-72
2022/01/04 08:57:29;;;;;;;2.77;1.80;;;;;;;7.58;100.00;96196.75;4986717;28;20205;-71
2022/01/04 08:59:57;;;;;;;2.43;2.27;;;;;;;7.57;100.00;96189.03;4986651;28;20370;-71
2022/01/04 09:02:25;;;;;;;1.80;1.70;;;;;;;7.58;100.00;96183.56;4986806;28;20258;-72
2022/01/04 09:04:55;;;;;;;2.47;2.23;;;;;;;7.68;100.00;96178.78;4987149;28;20201;-72
2022/01/04 09:07:22;;;;;;;2.57;1.73;;;;;;;7.51;100.00;96180.88;4983202;28;20202;-71
2022/01/04 09:09:50;;;;;;;3.00;1.93;;;;;;;7.67;100.00;96173.69;4987162;28;20225;-69
2022/01/04 09:12:40;;;;;;;3.17;2.20;;;;;;;7.65;100.00;96178.34;4984147;28;20359;-71
2022/01/04 09:15:29;;;;;;;2.30;2.03;;;;;;;7.80;100.00;96173.81;4985940;28;20233;-70
2022/01/04 09:20:46;;;;;;;3.53;1.83;;;;;;;7.77;100.00;96163.66;4985695;28;20324;-68
2022/01/04 09:23:15;;;;;;;1.57;1.47;;;;;;;7.82;100.00;96161.25;4986052;28;20213;-71
2022/01/04 09:25:43;;;;;;;2.37;2.17;;;;;;;7.81;100.00;96161.44;4986543;28;20251;-72
2022/01/04 09:28:17;;;;;;;2.47;2.27;;;;;;;7.85;100.00;96154.75;4985245;28;20698;-70
2022/01/04 09:30:48;;;;;;;1.87;1.70;;;;;;;7.82;100.00;96160.41;4986919;28;20224;-69
2022/01/04 09:33:16;;;;;;;3.00;1.80;;;;;;;7.91;100.00;96145.28;4985789;28;20205;-71
2022/01/04 09:35:44;;;;;;;2.30;1.77;;;;;;;8.07;100.00;96142.31;4986906;28;20232;-72
2022/01/04 09:38:12;;;;;;;2.33;2.20;;;;;;;8.00;100.00;96127.50;4986515;28;20201;-71
2022/01/04 09:40:40;;;;;;;2.60;1.80;;;;;;;8.22;100.00;96129.03;4985541;28;20221;-72
2022/01/04 09:43:09;;;;;;;2.30;2.10;;;;;;;8.09;100.00;96124.47;4986690;28;20214;-69
2022/01/04 09:45:39;;;;;;;2.63;2.40;;;;;;;8.15;100.00;96114.19;4982919;28;20206;-70
2022/01/04 09:48:07;;;;;;;7.10;2.30;;;;;;;8.22;100.00;96128.22;4985649;28;20209;-70
2022/01/04 09:50:37;;;;;;;2.67;2.47;;;;;;;8.30;100.00;96119.31;4986551;28;20249;-70
2022/01/04 09:53:07;;;;;;;2.00;1.90;;;;;;;8.16;100.00;96110.53;4985110;28;20760;-68
2022/01/04 09:55:38;;;;;;;2.40;2.10;;;;;;;8.23;100.00;96114.81;4986673;28;20256;-68
2022/01/04 09:58:06;;;;;;;1.63;1.53;;;;;;;8.23;100.00;96092.91;4985872;28;20202;-69
2022/01/04 10:00:34;;;;;;;2.40;2.30;;;;;;;8.20;100.00;96096.75;4986682;28;20206;-68
2022/01/04 10:03:13;;;;;;;1.70;1.60;;;;;;;8.33;100.00;96085.44;4986968;28;20202;-69
2022/01/04 10:05:41;;;;;;;1.93;1.63;;;;;;;8.42;100.00;96080.81;4982825;28;20267;-69
2022/01/04 10:08:12;;;;;;;2.23;2.10;;;;;;;8.33;100.00;96084.59;4986376;28;20201;-68
2022/01/04 10:10:41;;;;;;;2.10;2.00;;;;;;;8.29;100.00;96080.72;4986861;28;20237;-69
2022/01/04 10:13:11;;;;;;;2.43;2.10;;;;;;;8.26;100.00;96076.69;4990272;28;20256;-69
2022/01/04 10:15:42;;;;;;;1.73;1.70;;;;;;;8.33;100.00;96082.78;4989884;28;20611;-69
2022/01/04 10:18:25;;;;;;;1.77;1.63;;;;;;;8.29;100.00;96071.00;4988814;28;20686;-69
2022/01/04 10:21:12;;;;;;;2.30;2.20;;;;;;;8.25;100.00;96065.28;4989639;28;20285;-69
2022/01/04 10:23:49;;;;;;;2.07;1.97;;;;;;;8.32;100.00;96062.69;4984619;28;20213;-71
2022/01/04 10:26:17;;;;;;;3.13;2.40;;;;;;;8.36;100.00;96055.22;4990097;28;20197;-69
2022/01/04 10:28:47;;;;;;;2.60;2.40;;;;;;;8.34;100.00;96055.38;4989741;28;20201;-68
2022/01/04 10:31:17;;;;;;;2.40;2.30;;;;;;;8.39;100.00;96045.03;4989494;28;20222;-68
2022/01/04 10:33:52;;;;;;;3.10;2.63;;;;;;;8.43;100.00;96039.38;4990152;28;20204;-68
2022/01/04 10:36:21;;;;;;;2.90;2.70;;;;;;;8.50;100.00;96037.59;4986166;28;20228;-68
2022/01/04 10:38:51;;;;;;;3.10;2.67;;;;;;;8.53;100.00;96024.03;4984485;28;20661;-68
2022/01/04 10:41:23;;;;;;;2.20;2.00;;;;;;;8.56;100.00;96028.91;4989828;28;20292;-68
2022/01/04 10:43:53;;;;;;;2.67;2.47;;;;;;;8.51;100.00;96026.84;4985422;28;20252;-67
2022/01/04 10:46:31;;;;;;;3.63;2.17;;;;;;;8.50;100.00;96011.19;4983266;28;20767;-68
2022/01/04 10:49:01;;;;;;;2.20;2.10;;;;;;;8.48;100.00;96011.38;4988336;28;20209;-67
2022/01/04 10:51:30;;;;;;;2.67;2.47;;;;;;;8.58;100.00;96012.84;4987585;28;20244;-69
2022/01/04 10:54:01;;;;;;;2.10;2.00;;;;;;;8.58;100.00;96007.56;4987550;28;20206;-69
2022/01/04 10:56:31;;;;;;;2.00;1.90;;;;;;;8.66;100.00;95996.81;4986003;28;20221;-70
2022/01/04 10:59:01;;;;;;;2.03;1.70;;;;;;;8.66;100.00;96010.00;4988283;28;20256;-67
2022/01/04 11:01:30;;;;;;;2.87;1.60;;;;;;;8.67;100.00;96009.81;4989188;28;20229;-69
2022/01/04 11:04:02;;;;;;;4.50;2.47;;;;;;;8.68;100.00;96002.69;4988453;28;20292;-70
2022/01/04 11:06:31;;;;;;;1.60;1.57;;;;;;;8.65;100.00;96003.09;4992667;28;20689;-69
2022/01/04 11:08:59;;;;;;;1.77;1.67;;;;;;;8.74;100.00;95995.81;4989225;28;20201;-70
2022/01/04 11:11:28;;;;;;;1.90;1.80;;;;;;;8.91;100.00;95985.66;4989373;28;20228;-70
2022/01/04 11:13:56;;;;;;;2.07;1.90;;;;;;;8.89;100.00;95987.69;4988902;28;20892;-68
2022/01/04 11:16:26;;;;;;;2.37;1.70;;;;;;;8.96;100.00;95970.00;4989009;28;20236;-68
2022/01/04 11:18:56;;;;;;;1.70;1.60;;;;;;;8.91;100.00;95962.72;4989111;28;20255;-68
2022/01/04 11:21:28;;;;;;;1.37;1.33;;;;;;;8.96;100.00;95957.63;4989118;28;20968;-65
2022/01/04 11:23:56;;;;;;;1.67;1.57;;;;;;;9.06;100.00;95954.56;4987971;28;20213;-65
2022/01/04 11:26:25;;;;;;;2.10;2.00;;;;;;;9.07;100.00;95953.53;4985684;28;20194;-65
2022/01/04 11:28:54;;;;;;;2.13;2.03;;;;;;;9.10;100.00;95953.16;4988608;28;20213;-64
2022/01/04 11:31:54;;;;;;;1.93;1.83;;;;;;;9.13;100.00;95941.34;4987776;28;20221;-66
2022/01/04 11:34:30;;;;;;;1.83;1.70;;;;;;;9.12;100.00;95947.66;4927969;29;20215;-66
2022/01/04 11:37:00;;;;;;;4.33;2.17;;;;;;;9.04;100.00;95946.03;4978221;28;20197;-65
2022/01/04 11:39:34;;;;;;;1.90;1.80;;;;;;;9.08;100.00;95941.94;4987290;28;20256;-65
2022/01/04 11:42:06;;;;;;;1.57;1.47;;;;;;;9.16;100.00;95933.00;4988272;28;20225;-66
2022/01/04 11:44:35;;;;;;;2.23;1.70;;;;;;;9.19;100.00;95918.59;4985336;28;20205;-67
2022/01/04 11:47:07;;;;;;;1.70;1.33;;;;;;;9.20;100.00;95912.28;4986612;28;20291;-68
2022/01/04 11:49:37;;;;;;;2.57;2.37;;;;;;;9.19;100.00;95914.09;4986959;28;20202;-68
2022/01/04 11:52:08;;;;;;;2.47;1.50;;;;;;;9.31;100.00;95909.00;4986803;28;20225;-71